createdAt,value
2023-03-17T00:00:25.218Z,93032.94
2023-03-17T00:01:56.968Z,93036.13
2023-03-17T00:03:29.850Z,93036.38
2023-03-17T00:05:01.709Z,93038.44
2023-03-17T00:06:33.907Z,93034.44
2023-03-17T00:08:10.617Z,93039.22
2023-03-17T00:09:42.136Z,93044.25
2023-03-17T00:11:14.193Z,93043.22
2023-03-17T00:12:45.861Z,93035.25
2023-03-17T00:14:17.714Z,93042.41
2023-03-17T00:15:52.387Z,93039.50
2023-03-17T00:17:24.276Z,93045.88
2023-03-17T00:18:55.838Z,93045.88
2023-03-17T00:20:28.717Z,93040.03
2023-03-17T00:22:01.028Z,93039.50
2023-03-17T00:23:32.652Z,93044.25
2023-03-17T00:25:06.827Z,93044.81
2023-03-17T00:26:38.451Z,93045.63
2023-03-17T00:28:13.983Z,93043.47
2023-03-17T00:29:45.584Z,93045.06
2023-03-17T00:31:18.007Z,93039.75
2023-03-17T00:32:50.902Z,93031.53
2023-03-17T00:34:22.488Z,93031.00
2023-03-17T00:35:54.282Z,93033.34
2023-03-17T00:37:25.832Z,93032.78
2023-03-17T00:38:57.833Z,93026.44
2023-03-17T00:40:31.405Z,93030.16
2023-03-17T00:42:03.302Z,93025.09
2023-03-17T00:43:34.829Z,93026.16
2023-03-17T00:45:06.570Z,93023.50
2023-03-17T00:46:38.663Z,93018.72
2023-03-17T00:48:15.058Z,93022.16
2023-03-17T00:49:46.642Z,93014.22
2023-03-17T00:51:18.219Z,93015.81
2023-03-17T00:52:50.577Z,93026.66
2023-03-17T00:54:22.289Z,93019.75
2023-03-17T00:55:54.311Z,93022.41
2023-03-17T00:57:26.362Z,93020.81
2023-03-17T00:58:58.185Z,93019.75
2023-03-17T01:00:30.207Z,93012.59
2023-03-17T01:02:02.087Z,93026.41
2023-03-17T01:03:34.731Z,93024.25
2023-03-17T01:05:07.448Z,93025.56
2023-03-17T01:06:39.013Z,93022.91
2023-03-17T01:08:11.048Z,93019.22
2023-03-17T01:09:43.041Z,93023.22
2023-03-17T01:11:15.251Z,93025.63
2023-03-17T01:12:46.806Z,93022.97
2023-03-17T01:14:18.354Z,93026.41
2023-03-17T01:15:50.565Z,93019.75
2023-03-17T01:17:22.218Z,93028.53
2023-03-17T01:18:53.776Z,93023.22
2023-03-17T01:20:26.374Z,93029.06
2023-03-17T01:21:57.980Z,93025.63
2023-03-17T01:23:30.242Z,93026.41
2023-03-17T01:25:02.226Z,93025.88
2023-03-17T01:26:33.864Z,93032.78
2023-03-17T01:28:05.820Z,93032.47
2023-03-17T01:29:37.759Z,93026.41
2023-03-17T01:31:09.775Z,93025.63
2023-03-17T01:32:41.480Z,93029.56
2023-03-17T01:34:12.960Z,93023.72
2023-03-17T01:35:46.308Z,93027.97
2023-03-17T01:37:17.864Z,93026.91
2023-03-17T01:38:51.144Z,93029.31
2023-03-17T01:40:23.757Z,93026.91
2023-03-17T01:42:00.407Z,93025.88
2023-03-17T01:43:32.339Z,93030.13
2023-03-17T01:45:05.729Z,93024.00
2023-03-17T01:46:37.371Z,93028.28
2023-03-17T01:48:09.276Z,93025.06
2023-03-17T01:49:42.384Z,93020.56
2023-03-17T01:51:16.632Z,93026.41
2023-03-17T01:52:48.429Z,93028.28
2023-03-17T01:54:30.134Z,93024.56
2023-03-17T01:56:02.036Z,93021.13
2023-03-17T01:57:37.209Z,93030.94
2023-03-17T01:59:09.679Z,93029.06
2023-03-17T02:00:41.239Z,93024.00
2023-03-17T02:02:13.376Z,93029.31
2023-03-17T02:03:45.323Z,93026.94
2023-03-17T02:05:17.991Z,93030.41
2023-03-17T02:06:58.578Z,93033.84
2023-03-17T02:08:30.931Z,93033.03
2023-03-17T02:10:02.551Z,93029.91
2023-03-17T02:11:35.190Z,93030.69
2023-03-17T02:13:08.127Z,93036.81
2023-03-17T02:14:40.348Z,93033.09
2023-03-17T02:16:16.120Z,93044.75
2023-03-17T02:17:47.749Z,93035.44
2023-03-17T02:19:19.236Z,93038.34
2023-03-17T02:21:10.785Z,93044.75
2023-03-17T02:22:43.360Z,93040.47
2023-03-17T02:24:33.819Z,93045.78
2023-03-17T02:26:05.582Z,93046.63
2023-03-17T02:27:38.765Z,93049.81
2023-03-17T02:29:11.675Z,93050.06
2023-03-17T02:30:43.854Z,93051.63
2023-03-17T02:32:16.182Z,93056.94
2023-03-17T02:33:47.724Z,93056.94
2023-03-17T02:35:20.574Z,93062.50
2023-03-17T02:36:52.466Z,93057.94
2023-03-17T02:38:24.051Z,93066.16
2023-03-17T02:39:55.817Z,93071.47
2023-03-17T02:41:27.627Z,93070.66
2023-03-17T02:42:59.676Z,93074.38
2023-03-17T02:44:31.590Z,93065.34
2023-03-17T02:46:03.560Z,93073.00
2023-03-17T02:47:35.775Z,93070.09
2023-03-17T02:49:07.330Z,93073.28
2023-03-17T02:50:38.932Z,93067.19
2023-03-17T02:52:10.535Z,93071.69
2023-03-17T02:53:42.155Z,93073.28
2023-03-17T02:55:14.617Z,93080.16
2023-03-17T02:56:46.600Z,93075.66
2023-03-17T02:58:18.084Z,93074.34
2023-03-17T02:59:49.865Z,93083.34
2023-03-17T03:01:21.492Z,93088.66
2023-03-17T03:02:53.160Z,93081.50
2023-03-17T03:04:24.891Z,93078.59
2023-03-17T03:05:58.367Z,93078.59
2023-03-17T03:07:31.170Z,93076.19
2023-03-17T03:09:03.827Z,93085.75
2023-03-17T03:10:35.533Z,93080.72
2023-03-17T03:12:10.000Z,93097.69
2023-03-17T03:13:42.324Z,93095.56
2023-03-17T03:15:14.755Z,93093.16
2023-03-17T03:16:46.957Z,93089.69
2023-03-17T03:18:18.479Z,93095.00
2023-03-17T03:19:50.566Z,93101.13
2023-03-17T03:21:22.387Z,93102.41
2023-03-17T03:22:54.179Z,93098.72
2023-03-17T03:24:25.710Z,93097.97
2023-03-17T03:25:57.388Z,93096.59
2023-03-17T03:27:28.934Z,93100.31
2023-03-17T03:29:01.107Z,93098.72
2023-03-17T03:30:33.409Z,93097.16
2023-03-17T03:32:05.042Z,93099.81
2023-03-17T03:33:36.765Z,93093.16
2023-03-17T03:35:08.806Z,93100.81
2023-03-17T03:36:40.677Z,93088.59
2023-03-17T03:38:12.570Z,93092.28
2023-03-17T03:39:45.146Z,93100.50
2023-03-17T03:41:16.656Z,93101.31
2023-03-17T03:42:48.198Z,93101.31
2023-03-17T03:44:19.724Z,93102.91
2023-03-17T03:45:51.529Z,93101.59
2023-03-17T03:47:23.098Z,93107.41
2023-03-17T03:48:55.079Z,93110.59
2023-03-17T03:50:26.651Z,93111.31
2023-03-17T03:51:58.618Z,93120.31
2023-03-17T03:53:30.257Z,93115.03
2023-03-17T03:55:01.727Z,93117.13
2023-03-17T03:56:33.490Z,93110.22
2023-03-17T03:58:04.986Z,93115.00
2023-03-17T03:59:36.625Z,93110.97
2023-03-17T04:01:08.157Z,93120.28
2023-03-17T04:02:40.339Z,93122.38
2023-03-17T04:04:11.851Z,93126.66
2023-03-17T04:05:43.972Z,93129.28
2023-03-17T04:07:15.762Z,93129.56
2023-03-17T04:08:47.317Z,93133.03
2023-03-17T04:10:18.810Z,93126.91
2023-03-17T04:11:50.443Z,93132.47
2023-03-17T04:13:22.385Z,93130.69
2023-03-17T04:14:53.895Z,93133.91
2023-03-17T04:16:25.485Z,93136.00
2023-03-17T04:17:57.063Z,93137.28
2023-03-17T04:19:28.955Z,93140.19
2023-03-17T04:21:00.589Z,93133.28
2023-03-17T04:22:32.050Z,93140.19
2023-03-17T04:24:05.419Z,93139.69
2023-03-17T04:25:36.921Z,93146.59
2023-03-17T04:27:09.306Z,93143.94
2023-03-17T04:28:40.949Z,93142.66
2023-03-17T04:30:13.961Z,93152.75
2023-03-17T04:31:45.997Z,93145.88
2023-03-17T04:33:17.883Z,93142.69
2023-03-17T04:34:49.514Z,93143.72
2023-03-17T04:36:21.852Z,93144.84
2023-03-17T04:37:53.391Z,93151.69
2023-03-17T04:39:26.287Z,93154.34
2023-03-17T04:40:57.825Z,93142.91
2023-03-17T04:42:29.383Z,93152.69
2023-03-17T04:44:03.805Z,93147.34
2023-03-17T04:45:35.718Z,93154.75
2023-03-17T04:47:07.740Z,93162.16
2023-03-17T04:48:39.534Z,93163.94
2023-03-17T04:50:11.730Z,93163.09
2023-03-17T04:51:44.139Z,93173.94
2023-03-17T04:53:16.276Z,93171.06
2023-03-17T04:54:48.207Z,93172.34
2023-03-17T04:56:19.894Z,93166.22
2023-03-17T04:57:51.455Z,93168.09
2023-03-17T04:59:23.256Z,93172.81
2023-03-17T05:00:55.106Z,93173.13
2023-03-17T05:02:26.781Z,93177.44
2023-03-17T05:03:58.389Z,93186.19
2023-03-17T05:05:29.893Z,93191.25
2023-03-17T05:07:01.766Z,93196.31
2023-03-17T05:08:33.248Z,93193.91
2023-03-17T05:10:05.772Z,93193.34
2023-03-17T05:11:37.414Z,93197.56
2023-03-17T05:13:08.952Z,93194.91
2023-03-17T05:14:40.656Z,93193.88
2023-03-17T05:16:12.624Z,93197.84
2023-03-17T05:17:44.221Z,93192.63
2023-03-17T05:19:16.661Z,93195.28
2023-03-17T05:20:48.624Z,93197.34
2023-03-17T05:22:20.250Z,93202.09
2023-03-17T05:23:54.580Z,93202.34
2023-03-17T05:25:26.570Z,93212.41
2023-03-17T05:26:58.264Z,93209.78
2023-03-17T05:28:29.792Z,93215.44
2023-03-17T05:30:02.237Z,93209.38
2023-03-17T05:31:34.088Z,93213.09
2023-03-17T05:33:06.246Z,93213.34
2023-03-17T05:34:37.814Z,93216.78
2023-03-17T05:36:09.390Z,93226.84
2023-03-17T05:37:41.298Z,93221.53
2023-03-17T05:39:14.603Z,93227.09
2023-03-17T05:40:48.924Z,93218.31
2023-03-17T05:42:20.771Z,93221.59
2023-03-17T05:43:52.697Z,93222.69
2023-03-17T05:45:24.434Z,93220.13
2023-03-17T05:46:56.946Z,93226.47
2023-03-17T05:48:28.431Z,93226.75
2023-03-17T05:50:00.871Z,93229.72
2023-03-17T05:51:32.689Z,93233.44
2023-03-17T05:53:04.208Z,93229.41
2023-03-17T05:54:35.803Z,93236.56
2023-03-17T05:56:07.481Z,93235.34
2023-03-17T05:57:39.190Z,93233.25
2023-03-17T05:59:15.192Z,93231.44
2023-03-17T06:00:47.486Z,93226.94
2023-03-17T06:02:19.316Z,93229.34
2023-03-17T06:03:50.956Z,93237.31
2023-03-17T06:05:22.645Z,93232.56
2023-03-17T06:06:54.392Z,93236.81
2023-03-17T06:08:26.054Z,93251.41
2023-03-17T06:09:57.721Z,93244.78
2023-03-17T06:11:29.619Z,93247.91
2023-03-17T06:13:03.853Z,93249.56
2023-03-17T06:14:36.339Z,93245.06
2023-03-17T06:16:08.491Z,93249.06
2023-03-17T06:17:40.298Z,93248.59
2023-03-17T06:19:12.336Z,93251.53
2023-03-17T06:20:43.960Z,93254.72
2023-03-17T06:22:15.490Z,93259.00
2023-03-17T06:23:47.061Z,93261.88
2023-03-17T06:25:19.124Z,93261.41
2023-03-17T06:26:52.197Z,93259.84
2023-03-17T06:28:24.199Z,93263.81
2023-03-17T06:29:55.842Z,93267.00
2023-03-17T06:31:27.952Z,93267.56
2023-03-17T06:33:00.519Z,93267.84
2023-03-17T06:34:32.967Z,93272.59
2023-03-17T06:36:05.135Z,93285.16
2023-03-17T06:37:37.402Z,93273.00
2023-03-17T06:39:09.675Z,93280.19
2023-03-17T06:40:41.815Z,93273.88
2023-03-17T06:42:13.981Z,93278.75
2023-03-17T06:43:45.544Z,93277.44
2023-03-17T06:45:17.745Z,93277.78
2023-03-17T06:46:49.724Z,93277.84
2023-03-17T06:48:23.753Z,93278.91
2023-03-17T06:49:55.565Z,93283.72
2023-03-17T06:51:27.611Z,93283.25
2023-03-17T06:52:59.595Z,93289.69
2023-03-17T06:54:32.138Z,93274.88
2023-03-17T06:56:05.217Z,93289.28
2023-03-17T06:57:37.480Z,93293.00
2023-03-17T06:59:09.112Z,93291.41
2023-03-17T07:00:40.823Z,93292.50
2023-03-17T07:02:12.798Z,93284.56
2023-03-17T07:03:44.510Z,93293.06
2023-03-17T07:05:18.126Z,93291.78
2023-03-17T07:06:50.279Z,93290.97
2023-03-17T07:08:22.204Z,93298.38
2023-03-17T07:09:54.172Z,93295.22
2023-03-17T07:11:26.424Z,93299.50
2023-03-17T07:12:58.123Z,93298.19
2023-03-17T07:14:29.781Z,93302.72
2023-03-17T07:16:03.311Z,93301.16
2023-03-17T07:17:35.379Z,93299.06
2023-03-17T07:19:07.508Z,93300.44
2023-03-17T07:20:39.614Z,93301.03
2023-03-17T07:22:12.042Z,93300.50
2023-03-17T07:23:44.047Z,93299.69
2023-03-17T07:25:15.944Z,93309.31
2023-03-17T07:26:47.511Z,93297.63
2023-03-17T07:28:19.632Z,93302.69
2023-03-17T07:29:52.098Z,93305.13
2023-03-17T07:31:24.582Z,93303.25
2023-03-17T07:32:56.313Z,93305.91
2023-03-17T07:34:28.405Z,93308.31
2023-03-17T07:36:00.298Z,93312.09
2023-03-17T07:37:32.147Z,93311.03
2023-03-17T07:39:04.044Z,93318.78
2023-03-17T07:40:36.473Z,93307.88
2023-03-17T07:42:08.616Z,93309.75
2023-03-17T07:43:41.029Z,93310.59
2023-03-17T07:45:13.576Z,93313.50
2023-03-17T07:46:46.542Z,93319.13
2023-03-17T07:48:18.552Z,93318.91
2023-03-17T07:49:50.167Z,93315.22
2023-03-17T07:51:22.570Z,93316.06
2023-03-17T07:52:54.601Z,93315.63
2023-03-17T07:54:28.000Z,93312.97
2023-03-17T07:55:59.762Z,93309.00
2023-03-17T07:57:31.913Z,93308.22
2023-03-17T07:59:03.557Z,93308.78
2023-03-17T08:00:35.729Z,93313.06
2023-03-17T08:02:07.643Z,93310.13
2023-03-17T08:03:41.489Z,93314.69
2023-03-17T08:05:14.357Z,93306.41
2023-03-17T08:06:47.048Z,93315.75
2023-03-17T08:08:20.369Z,93315.72
2023-03-17T08:09:52.905Z,93311.44
2023-03-17T08:11:24.566Z,93316.28
2023-03-17T08:12:56.520Z,93314.38
2023-03-17T08:14:28.298Z,93320.25
2023-03-17T08:16:00.706Z,93321.03
2023-03-17T08:17:33.032Z,93324.22
2023-03-17T08:19:05.142Z,93327.72
2023-03-17T08:20:36.769Z,93330.66
2023-03-17T08:22:08.767Z,93321.03
2023-03-17T08:23:40.596Z,93324.78
2023-03-17T08:25:12.772Z,93325.00
2023-03-17T08:26:47.642Z,93323.41
2023-03-17T08:28:19.701Z,93324.75
2023-03-17T08:29:51.447Z,93325.53
2023-03-17T08:31:23.211Z,93320.94
2023-03-17T08:32:55.108Z,93324.91
2023-03-17T08:34:26.883Z,93318.19
2023-03-17T08:35:59.387Z,93327.72
2023-03-17T08:37:31.691Z,93323.63
2023-03-17T08:39:04.832Z,93315.25
2023-03-17T08:40:37.002Z,93316.69
2023-03-17T08:42:08.866Z,93317.66
2023-03-17T08:43:40.618Z,93325.84
2023-03-17T08:45:13.200Z,93315.53
2023-03-17T08:46:44.921Z,93313.50
2023-03-17T08:48:16.828Z,93315.06
2023-03-17T08:49:48.482Z,93311.25
2023-03-17T08:51:24.125Z,93314.97
2023-03-17T08:52:55.969Z,93310.28
2023-03-17T08:54:28.064Z,93308.75
2023-03-17T08:56:00.094Z,93308.03
2023-03-17T08:57:32.696Z,93313.19
2023-03-17T08:59:06.442Z,93318.34
2023-03-17T09:00:38.260Z,93303.25
2023-03-17T09:02:11.666Z,93313.19
2023-03-17T09:03:43.497Z,93313.44
2023-03-17T09:05:16.913Z,93309.97
2023-03-17T09:07:02.305Z,93304.53
2023-03-17T09:08:35.052Z,93316.53
2023-03-17T09:10:07.413Z,93308.78
2023-03-17T09:11:39.092Z,93309.22
2023-03-17T09:13:10.680Z,93308.72
2023-03-17T09:14:44.332Z,93311.13
2023-03-17T09:16:18.263Z,93309.53
2023-03-17T09:17:49.905Z,93308.03
2023-03-17T09:19:22.159Z,93314.09
2023-03-17T09:20:53.791Z,93315.00
2023-03-17T09:22:25.462Z,93315.66
2023-03-17T09:23:57.028Z,93313.75
2023-03-17T09:25:28.777Z,93308.59
2023-03-17T09:27:01.625Z,93312.34
2023-03-17T09:28:34.254Z,93308.13
2023-03-17T09:30:06.487Z,93303.56
2023-03-17T09:31:38.542Z,93308.97
2023-03-17T09:33:13.756Z,93308.63
2023-03-17T09:34:46.187Z,93302.88
2023-03-17T09:36:17.972Z,93300.59
2023-03-17T09:37:49.686Z,93303.16
2023-03-17T09:39:23.192Z,93297.19
2023-03-17T09:40:58.088Z,93302.78
2023-03-17T09:42:33.682Z,93300.47
2023-03-17T09:44:09.162Z,93293.28
2023-03-17T09:45:43.563Z,93298.50
2023-03-17T09:47:30.609Z,93295.97
2023-03-17T09:49:03.995Z,93297.28
2023-03-17T09:50:46.198Z,93297.09
2023-03-17T09:52:19.285Z,93300.09
2023-03-17T09:53:51.016Z,93297.31
2023-03-17T09:55:27.404Z,93297.91
2023-03-17T09:57:07.525Z,93297.78
2023-03-17T09:58:40.062Z,93295.72
2023-03-17T10:00:15.709Z,93300.59
2023-03-17T10:01:47.993Z,93305.00
2023-03-17T10:03:19.720Z,93301.72
2023-03-17T10:04:51.940Z,93307.97
2023-03-17T10:06:42.666Z,93300.38
2023-03-17T10:08:33.074Z,93305.56
2023-03-17T10:10:06.256Z,93306.88
2023-03-17T10:11:39.842Z,93303.56
2023-03-17T10:13:17.288Z,93308.28
2023-03-17T10:15:01.353Z,93302.63
2023-03-17T10:16:41.764Z,93310.19
2023-03-17T10:18:13.946Z,93306.19
2023-03-17T10:19:46.192Z,93310.13
2023-03-17T10:21:18.674Z,93312.84
2023-03-17T10:23:19.206Z,93314.84
2023-03-17T10:24:51.918Z,93313.25
2023-03-17T10:26:29.380Z,93315.72
2023-03-17T10:28:01.387Z,93309.03
2023-03-17T10:29:33.302Z,93309.44
2023-03-17T10:31:15.249Z,93304.81
2023-03-17T10:32:47.067Z,93304.59
2023-03-17T10:34:23.809Z,93302.19
2023-03-17T10:35:55.457Z,93306.06
2023-03-17T10:37:29.425Z,93309.34
2023-03-17T10:39:01.598Z,93305.38
2023-03-17T10:40:33.683Z,93303.31
2023-03-17T10:42:09.602Z,93305.81
2023-03-17T10:43:42.643Z,93300.53
2023-03-17T10:45:15.525Z,93296.97
2023-03-17T10:46:52.851Z,93300.88
2023-03-17T10:48:25.159Z,93297.47
2023-03-17T10:49:56.973Z,93291.94
2023-03-17T10:51:35.673Z,93299.00
2023-03-17T10:53:08.510Z,93295.72
2023-03-17T10:54:42.176Z,93296.19
2023-03-17T10:56:37.088Z,93293.69
2023-03-17T10:58:15.768Z,93291.53
2023-03-17T10:59:55.626Z,93289.63
2023-03-17T11:01:31.157Z,93289.31
2023-03-17T11:03:21.878Z,93287.94
2023-03-17T11:05:13.706Z,93291.72
2023-03-17T11:06:47.460Z,93294.00
2023-03-17T11:08:19.126Z,93286.03
2023-03-17T11:09:52.122Z,93290.03
2023-03-17T11:11:26.620Z,93287.13
2023-03-17T11:12:59.570Z,93287.13
2023-03-17T11:14:31.386Z,93281.47
2023-03-17T11:16:11.080Z,93282.56
2023-03-17T11:17:43.167Z,93276.38
2023-03-17T11:19:15.599Z,93280.03
2023-03-17T11:21:03.326Z,93272.09
2023-03-17T11:22:39.012Z,93268.59
2023-03-17T11:24:13.128Z,93269.78
2023-03-17T11:25:44.890Z,93273.09
2023-03-17T11:27:16.642Z,93264.53
2023-03-17T11:28:54.038Z,93275.09
2023-03-17T11:30:25.663Z,93263.03
2023-03-17T11:31:58.923Z,93267.44
2023-03-17T11:33:40.864Z,93266.41
2023-03-17T11:35:16.841Z,93265.41
2023-03-17T11:37:01.398Z,93261.03
2023-03-17T11:38:35.184Z,93264.53
2023-03-17T11:40:12.320Z,93266.38
2023-03-17T11:41:46.812Z,93266.38
2023-03-17T11:43:24.576Z,93262.19
2023-03-17T11:45:15.824Z,93264.16
2023-03-17T11:46:49.501Z,93263.97
2023-03-17T11:48:23.987Z,93261.38
2023-03-17T11:49:59.967Z,93264.97
2023-03-17T11:51:34.757Z,93264.47
2023-03-17T11:53:19.172Z,93272.72
2023-03-17T11:54:55.980Z,93260.38
2023-03-17T11:56:48.070Z,93257.09
2023-03-17T11:58:24.622Z,93261.06
2023-03-17T11:59:58.122Z,93260.97
2023-03-17T12:01:32.465Z,93263.94
2023-03-17T12:03:23.418Z,93258.19
2023-03-17T12:04:57.451Z,93264.72
2023-03-17T12:06:30.692Z,93258.72
2023-03-17T12:08:04.131Z,93258.59
2023-03-17T12:09:41.079Z,93258.38
2023-03-17T12:11:13.284Z,93264.66
2023-03-17T12:12:48.341Z,93267.53
2023-03-17T12:14:20.054Z,93258.38
2023-03-17T12:15:53.206Z,93259.19
2023-03-17T12:17:29.674Z,93255.69
2023-03-17T12:19:04.358Z,93260.38
2023-03-17T12:20:36.111Z,93259.50
2023-03-17T12:22:28.610Z,93258.22
2023-03-17T12:24:02.090Z,93258.31
2023-03-17T12:25:54.243Z,93257.97
2023-03-17T12:27:48.875Z,93253.28
2023-03-17T12:29:39.281Z,93256.31
2023-03-17T12:31:15.947Z,93254.44
2023-03-17T12:32:53.866Z,93256.03
2023-03-17T12:34:33.838Z,93261.78
2023-03-17T12:36:05.621Z,93251.84
2023-03-17T12:37:37.168Z,93252.69
2023-03-17T12:39:27.433Z,93256.19
2023-03-17T12:41:05.655Z,93255.59
2023-03-17T12:42:37.812Z,93261.56
2023-03-17T12:44:32.180Z,93263.16
2023-03-17T12:46:11.341Z,93264.47
2023-03-17T12:47:48.652Z,93266.81
2023-03-17T12:49:22.995Z,93261.16
2023-03-17T12:51:07.038Z,93264.13
2023-03-17T12:52:38.874Z,93266.25
2023-03-17T12:54:15.426Z,93258.19
2023-03-17T12:55:48.001Z,93265.44
2023-03-17T12:57:21.208Z,93268.66
2023-03-17T12:58:53.612Z,93260.31
2023-03-17T13:00:25.554Z,93256.81
2023-03-17T13:01:58.955Z,93255.00
2023-03-17T13:03:32.566Z,93264.28
2023-03-17T13:05:10.497Z,93263.88
2023-03-17T13:06:42.756Z,93259.47
2023-03-17T13:08:16.438Z,93257.34
2023-03-17T13:09:54.020Z,93251.13
2023-03-17T13:11:27.458Z,93262.50
2023-03-17T13:13:22.074Z,93251.38
2023-03-17T13:14:53.608Z,93257.97
2023-03-17T13:16:34.309Z,93263.28
2023-03-17T13:18:18.749Z,93259.78
2023-03-17T13:19:56.990Z,93253.06
2023-03-17T13:21:31.023Z,93259.78
2023-03-17T13:23:13.250Z,93257.22
2023-03-17T13:24:48.740Z,93256.25
2023-03-17T13:26:21.340Z,93249.53
2023-03-17T13:27:52.925Z,93258.22
2023-03-17T13:29:33.457Z,93243.13
2023-03-17T13:31:14.295Z,93247.84
2023-03-17T13:32:54.588Z,93246.47
2023-03-17T13:34:26.214Z,93247.72
2023-03-17T13:36:06.896Z,93249.22
2023-03-17T13:37:48.435Z,93246.53
2023-03-17T13:39:22.360Z,93250.72
2023-03-17T13:41:07.415Z,93245.00
2023-03-17T13:42:44.715Z,93249.47
2023-03-17T13:44:23.362Z,93244.72
2023-03-17T13:45:56.237Z,93246.31
2023-03-17T13:47:31.961Z,93247.41
2023-03-17T13:49:23.443Z,93247.16
2023-03-17T13:51:18.361Z,93245.88
2023-03-17T13:52:56.916Z,93243.00
2023-03-17T13:54:28.892Z,93251.84
2023-03-17T13:56:08.232Z,93246.75
2023-03-17T13:57:39.885Z,93242.75
2023-03-17T13:59:12.745Z,93246.81
2023-03-17T14:00:49.519Z,93246.13
2023-03-17T14:02:21.658Z,93246.13
2023-03-17T14:03:54.339Z,93244.81
2023-03-17T14:05:27.339Z,93244.06
2023-03-17T14:06:59.719Z,93246.84
2023-03-17T14:08:31.555Z,93244.16
2023-03-17T14:10:05.113Z,93246.28
2023-03-17T14:11:37.940Z,93244.34
2023-03-17T14:13:19.104Z,93241.03
2023-03-17T14:14:50.875Z,93239.28
2023-03-17T14:16:30.179Z,93238.91
2023-03-17T14:18:31.520Z,93239.63
2023-03-17T14:20:08.568Z,93245.06
2023-03-17T14:21:40.961Z,93238.88
2023-03-17T14:23:12.745Z,93238.28
2023-03-17T14:24:44.389Z,93244.88
2023-03-17T14:26:15.876Z,93244.91
2023-03-17T14:27:52.704Z,93240.44
2023-03-17T14:29:28.806Z,93255.06
2023-03-17T14:31:03.902Z,93259.16
2023-03-17T14:32:35.811Z,93258.16
2023-03-17T14:34:11.698Z,93249.09
2023-03-17T14:35:43.836Z,93251.91
2023-03-17T14:37:15.934Z,93247.47
2023-03-17T14:38:51.806Z,93248.66
2023-03-17T14:40:24.536Z,93248.78
2023-03-17T14:42:00.184Z,93253.63
2023-03-17T14:43:32.076Z,93248.28
2023-03-17T14:45:07.549Z,93240.59
2023-03-17T14:46:40.707Z,93254.03
2023-03-17T14:48:16.719Z,93247.13
2023-03-17T14:49:48.364Z,93252.56
2023-03-17T14:51:30.724Z,93253.72
2023-03-17T14:53:02.262Z,93251.59
2023-03-17T14:54:34.181Z,93255.75
2023-03-17T14:56:06.026Z,93255.75
2023-03-17T14:57:37.902Z,93249.16
2023-03-17T14:59:15.588Z,93249.50
2023-03-17T15:00:49.976Z,93255.97
2023-03-17T15:02:23.067Z,93254.72
2023-03-17T15:03:56.711Z,93256.06
2023-03-17T15:05:31.056Z,93253.66
2023-03-17T15:07:03.820Z,93260.38
2023-03-17T15:08:36.483Z,93250.75
2023-03-17T15:10:20.206Z,93252.91
2023-03-17T15:11:52.980Z,93248.66
2023-03-17T15:13:25.089Z,93255.34
2023-03-17T15:14:58.674Z,93248.16
2023-03-17T15:16:30.744Z,93250.63
2023-03-17T15:18:07.019Z,93242.16
2023-03-17T15:19:40.667Z,93252.34
2023-03-17T15:21:28.445Z,93256.44
2023-03-17T15:23:06.675Z,93263.41
2023-03-17T15:24:39.729Z,93272.78
2023-03-17T15:26:21.517Z,93274.88
2023-03-17T15:27:53.284Z,93267.41
2023-03-17T15:29:24.795Z,93271.94
2023-03-17T15:30:56.999Z,93276.69
2023-03-17T15:32:29.246Z,93277.19
2023-03-17T15:34:00.991Z,93273.72
2023-03-17T15:35:32.673Z,93277.47
2023-03-17T15:37:04.371Z,93278.03
2023-03-17T15:38:39.075Z,93278.34
2023-03-17T15:40:11.666Z,93276.22
2023-03-17T15:41:43.485Z,93281.56
2023-03-17T15:43:15.804Z,93278.38
2023-03-17T15:44:47.379Z,93290.66
2023-03-17T15:46:23.906Z,93283.41
2023-03-17T15:47:56.547Z,93290.06
2023-03-17T15:49:28.274Z,93283.63
2023-03-17T15:51:00.226Z,93289.41
2023-03-17T15:52:32.059Z,93279.72
2023-03-17T15:54:04.165Z,93273.53
2023-03-17T15:55:35.871Z,93272.16
2023-03-17T15:57:08.548Z,93279.91
2023-03-17T15:58:40.452Z,93277.50
2023-03-17T16:00:15.473Z,93274.59
2023-03-17T16:01:47.272Z,93279.16
2023-03-17T16:03:20.093Z,93282.91
2023-03-17T16:04:53.580Z,93290.69
2023-03-17T16:06:25.372Z,93289.94
2023-03-17T16:07:57.478Z,93294.78
2023-03-17T16:09:29.073Z,93292.91
2023-03-17T16:11:03.674Z,93292.03
2023-03-17T16:12:35.407Z,93282.94
2023-03-17T16:14:07.169Z,93286.66
2023-03-17T16:15:39.554Z,93295.50
2023-03-17T16:17:19.978Z,93301.38
2023-03-17T16:18:51.848Z,93299.50
2023-03-17T16:20:27.131Z,93310.53
2023-03-17T16:21:58.752Z,93312.97
2023-03-17T16:23:31.375Z,93309.53
2023-03-17T16:25:03.781Z,93300.75
2023-03-17T16:26:35.682Z,93301.88
2023-03-17T16:28:23.402Z,93303.00
2023-03-17T16:29:55.386Z,93306.00
2023-03-17T16:31:30.262Z,93308.41
2023-03-17T16:33:02.682Z,93313.56
2023-03-17T16:34:34.379Z,93313.59
2023-03-17T16:36:06.382Z,93309.31
2023-03-17T16:37:38.198Z,93308.53
2023-03-17T16:39:17.014Z,93307.47
2023-03-17T16:40:49.563Z,93319.75
2023-03-17T16:42:21.800Z,93313.28
2023-03-17T16:43:55.342Z,93314.84
2023-03-17T16:45:32.894Z,93318.56
2023-03-17T16:47:04.661Z,93316.16
2023-03-17T16:48:36.589Z,93318.28
2023-03-17T16:50:14.561Z,93321.47
2023-03-17T16:51:46.356Z,93321.22
2023-03-17T16:53:18.130Z,93313.22
2023-03-17T16:54:49.943Z,93320.97
2023-03-17T16:56:22.813Z,93318.31
2023-03-17T16:57:55.462Z,93316.47
2023-03-17T16:59:31.501Z,93326.13
2023-03-17T17:01:04.362Z,93321.88
2023-03-17T17:02:35.966Z,93322.69
2023-03-17T17:04:11.734Z,93324.03
2023-03-17T17:05:43.527Z,93313.91
2023-03-17T17:07:15.973Z,93317.91
2023-03-17T17:08:47.540Z,93327.59
2023-03-17T17:10:19.677Z,93325.44
2023-03-17T17:11:51.398Z,93325.75
2023-03-17T17:13:22.913Z,93326.59
2023-03-17T17:14:54.477Z,93328.72
2023-03-17T17:16:29.673Z,93330.63
2023-03-17T17:18:02.062Z,93320.19
2023-03-17T17:19:33.601Z,93339.44
2023-03-17T17:21:05.194Z,93334.66
2023-03-17T17:22:36.790Z,93342.41
2023-03-17T17:24:12.376Z,93344.03
2023-03-17T17:25:44.133Z,93344.53
2023-03-17T17:27:16.135Z,93350.69
2023-03-17T17:28:48.118Z,93350.97
2023-03-17T17:30:20.828Z,93358.16
2023-03-17T17:31:52.606Z,93362.16
2023-03-17T17:33:25.457Z,93365.34
2023-03-17T17:34:57.558Z,93353.31
2023-03-17T17:36:29.473Z,93362.63
2023-03-17T17:38:04.338Z,93362.13
2023-03-17T17:39:35.857Z,93365.84
2023-03-17T17:41:09.156Z,93370.88
2023-03-17T17:42:40.923Z,93368.72
2023-03-17T17:44:12.635Z,93366.25
2023-03-17T17:45:44.471Z,93369.94
2023-03-17T17:47:16.430Z,93368.28
2023-03-17T17:48:48.352Z,93367.69
2023-03-17T17:50:25.041Z,93373.25
2023-03-17T17:51:56.854Z,93369.25
2023-03-17T17:53:28.525Z,93365.78
2023-03-17T17:55:01.673Z,93358.56
2023-03-17T17:56:36.939Z,93359.34
2023-03-17T17:58:09.457Z,93355.63
2023-03-17T17:59:41.155Z,93369.75
2023-03-17T18:01:14.427Z,93362.25
2023-03-17T18:02:46.676Z,93364.06
2023-03-17T18:04:18.484Z,93360.84
2023-03-17T18:05:50.526Z,93364.03
2023-03-17T18:07:22.509Z,93367.75
2023-03-17T18:08:57.872Z,93368.28
2023-03-17T18:10:29.961Z,93366.88
2023-03-17T18:12:01.727Z,93366.59
2023-03-17T18:13:36.210Z,93362.03
2023-03-17T18:15:08.189Z,93363.06
2023-03-17T18:16:39.783Z,93361.41
2023-03-17T18:18:11.387Z,93363.53
2023-03-17T18:19:43.009Z,93351.81
2023-03-17T18:21:14.852Z,93351.81